sensor_id;sensor_type;location;lat;lon;timestamp;P1;durP1;ratioP1;P2;durP2;ratioP2
51495;SDS011;37572;52.094;4.870;2023-02-23T00:00:14;80.73;;;28.10;;
51495;SDS011;37572;52.094;4.870;2023-02-23T00:02:47;83.40;;;29.40;;
51495;SDS011;37572;52.094;4.870;2023-02-23T00:05:12;82.90;;;31.60;;
51495;SDS011;37572;52.094;4.870;2023-02-23T00:07:38;81.50;;;30.13;;
51495;SDS011;37572;52.094;4.870;2023-02-23T00:10:03;102.00;;;35.83;;
51495;SDS011;37572;52.094;4.870;2023-02-23T00:12:28;90.60;;;35.10;;
51495;SDS011;37572;52.094;4.870;2023-02-23T00:14:54;80.10;;;32.73;;
51495;SDS011;37572;52.094;4.870;2023-02-23T00:17:19;94.13;;;34.67;;
51495;SDS011;37572;52.094;4.870;2023-02-23T00:19:45;100.43;;;35.40;;
51495;SDS011;37572;52.094;4.870;2023-02-23T00:22:11;96.75;;;33.42;;
51495;SDS011;37572;52.094;4.870;2023-02-23T00:24:36;97.28;;;34.70;;
51495;SDS011;37572;52.094;4.870;2023-02-23T00:27:02;94.57;;;32.97;;
51495;SDS011;37572;52.094;4.870;2023-02-23T00:29:30;84.15;;;31.55;;
51495;SDS011;37572;52.094;4.870;2023-02-23T00:32:02;99.55;;;36.97;;
51495;SDS011;37572;52.094;4.870;2023-02-23T00:34:27;104.37;;;35.63;;
51495;SDS011;37572;52.094;4.870;2023-02-23T00:36:53;96.37;;;35.30;;
51495;SDS011;37572;52.094;4.870;2023-02-23T00:39:19;100.88;;;36.20;;
51495;SDS011;37572;52.094;4.870;2023-02-23T00:41:50;92.55;;;35.67;;
51495;SDS011;37572;52.094;4.870;2023-02-23T00:44:19;95.57;;;32.50;;
51495;SDS011;37572;52.094;4.870;2023-02-23T00:46:45;106.88;;;36.58;;
51495;SDS011;37572;52.094;4.870;2023-02-23T00:49:13;88.72;;;32.10;;
51495;SDS011;37572;52.094;4.870;2023-02-23T00:51:39;105.32;;;36.08;;
51495;SDS011;37572;52.094;4.870;2023-02-23T00:54:05;114.05;;;38.70;;
51495;SDS011;37572;52.094;4.870;2023-02-23T00:56:30;99.22;;;33.92;;
51495;SDS011;37572;52.094;4.870;2023-02-23T00:58:56;96.15;;;34.70;;
51495;SDS011;37572;52.094;4.870;2023-02-23T01:01:21;104.83;;;36.13;;
51495;SDS011;37572;52.094;4.870;2023-02-23T01:03:47;97.70;;;34.22;;
51495;SDS011;37572;52.094;4.870;2023-02-23T01:06:13;97.22;;;34.35;;
51495;SDS011;37572;52.094;4.870;2023-02-23T01:08:40;89.38;;;31.10;;
51495;SDS011;37572;52.094;4.870;2023-02-23T01:11:10;90.13;;;33.85;;
51495;SDS011;37572;52.094;4.870;2023-02-23T01:13:35;89.72;;;33.47;;
51495;SDS011;37572;52.094;4.870;2023-02-23T01:16:08;91.35;;;35.17;;
51495;SDS011;37572;52.094;4.870;2023-02-23T01:18:34;93.00;;;33.47;;
51495;SDS011;37572;52.094;4.870;2023-02-23T01:21:00;94.05;;;32.42;;
51495;SDS011;37572;52.094;4.870;2023-02-23T01:23:25;99.50;;;34.28;;
51495;SDS011;37572;52.094;4.870;2023-02-23T01:25:50;97.90;;;31.17;;
51495;SDS011;37572;52.094;4.870;2023-02-23T01:28:15;98.30;;;35.53;;
51495;SDS011;37572;52.094;4.870;2023-02-23T01:30:40;91.57;;;31.40;;
51495;SDS011;37572;52.094;4.870;2023-02-23T01:33:06;80.93;;;27.27;;
51495;SDS011;37572;52.094;4.870;2023-02-23T01:35:31;97.00;;;33.53;;
51495;SDS011;37572;52.094;4.870;2023-02-23T01:37:59;77.05;;;28.27;;
51495;SDS011;37572;52.094;4.870;2023-02-23T01:40:25;81.70;;;28.13;;
51495;SDS011;37572;52.094;4.870;2023-02-23T01:42:55;80.10;;;28.40;;
51495;SDS011;37572;52.094;4.870;2023-02-23T01:47:53;79.95;;;27.17;;
51495;SDS011;37572;52.094;4.870;2023-02-23T01:50:19;80.43;;;28.70;;
51495;SDS011;37572;52.094;4.870;2023-02-23T01:52:49;76.82;;;30.55;;
51495;SDS011;37572;52.094;4.870;2023-02-23T01:55:14;80.93;;;28.48;;
51495;SDS011;37572;52.094;4.870;2023-02-23T01:57:47;77.88;;;27.27;;
51495;SDS011;37572;52.094;4.870;2023-02-23T02:00:12;84.35;;;28.52;;
51495;SDS011;37572;52.094;4.870;2023-02-23T02:02:39;91.13;;;32.47;;
51495;SDS011;37572;52.094;4.870;2023-02-23T02:05:04;82.15;;;28.13;;
51495;SDS011;37572;52.094;4.870;2023-02-23T02:07:37;86.13;;;29.65;;
51495;SDS011;37572;52.094;4.870;2023-02-23T02:10:04;96.22;;;33.05;;
51495;SDS011;37572;52.094;4.870;2023-02-23T02:12:36;99.93;;;33.58;;
51495;SDS011;37572;52.094;4.870;2023-02-23T02:15:02;84.65;;;28.63;;
51495;SDS011;37572;52.094;4.870;2023-02-23T02:28:27;86.03;;;30.05;;
51495;SDS011;37572;52.094;4.870;2023-02-23T02:38:42;110.28;;;36.58;;
51495;SDS011;37572;52.094;4.870;2023-02-23T02:41:19;94.72;;;29.73;;
51495;SDS011;37572;52.094;4.870;2023-02-23T02:43:51;102.15;;;34.08;;
51495;SDS011;37572;52.094;4.870;2023-02-23T02:46:25;100.57;;;33.30;;
51495;SDS011;37572;52.094;4.870;2023-02-23T02:49:04;100.65;;;32.20;;
51495;SDS011;37572;52.094;4.870;2023-02-23T02:56:21;84.60;;;28.87;;
51495;SDS011;37572;52.094;4.870;2023-02-23T02:58:47;94.78;;;33.85;;
51495;SDS011;37572;52.094;4.870;2023-02-23T03:01:15;102.07;;;33.80;;
51495;SDS011;37572;52.094;4.870;2023-02-23T03:04:00;95.72;;;32.17;;
51495;SDS011;37572;52.094;4.870;2023-02-23T03:06:46;102.63;;;32.10;;
51495;SDS011;37572;52.094;4.870;2023-02-23T03:09:39;99.78;;;36.35;;
51495;SDS011;37572;52.094;4.870;2023-02-23T03:12:32;103.93;;;34.17;;
51495;SDS011;37572;52.094;4.870;2023-02-23T03:18:39;97.53;;;31.30;;
51495;SDS011;37572;52.094;4.870;2023-02-23T03:21:29;90.05;;;29.15;;
51495;SDS011;37572;52.094;4.870;2023-02-23T03:24:24;102.45;;;36.75;;
51495;SDS011;37572;52.094;4.870;2023-02-23T03:27:15;100.18;;;33.58;;
51495;SDS011;37572;52.094;4.870;2023-02-23T03:30:02;97.03;;;33.60;;
51495;SDS011;37572;52.094;4.870;2023-02-23T03:32:52;116.25;;;34.25;;
51495;SDS011;37572;52.094;4.870;2023-02-23T03:41:09;94.95;;;30.75;;
51495;SDS011;37572;52.094;4.870;2023-02-23T03:44:02;103.57;;;32.47;;
51495;SDS011;37572;52.094;4.870;2023-02-23T03:46:48;110.35;;;35.00;;
51495;SDS011;37572;52.094;4.870;2023-02-23T03:52:17;83.07;;;28.55;;
51495;SDS011;37572;52.094;4.870;2023-02-23T03:55:08;93.65;;;29.90;;
51495;SDS011;37572;52.094;4.870;2023-02-23T03:57:53;89.82;;;28.23;;
51495;SDS011;37572;52.094;4.870;2023-02-23T04:00:41;90.30;;;28.38;;
51495;SDS011;37572;52.094;4.870;2023-02-23T04:03:25;90.20;;;28.80;;
51495;SDS011;37572;52.094;4.870;2023-02-23T04:08:54;90.28;;;29.15;;
51495;SDS011;37572;52.094;4.870;2023-02-23T04:11:42;84.32;;;27.42;;
51495;SDS011;37572;52.094;4.870;2023-02-23T04:14:35;98.13;;;32.50;;
51495;SDS011;37572;52.094;4.870;2023-02-23T04:17:02;97.30;;;30.67;;
51495;SDS011;37572;52.094;4.870;2023-02-23T04:19:28;86.43;;;29.13;;
51495;SDS011;37572;52.094;4.870;2023-02-23T04:21:53;93.97;;;30.03;;
51495;SDS011;37572;52.094;4.870;2023-02-23T04:24:18;76.20;;;25.58;;
51495;SDS011;37572;52.094;4.870;2023-02-23T04:26:43;83.47;;;28.13;;
51495;SDS011;37572;52.094;4.870;2023-02-23T04:29:09;92.63;;;30.93;;
51495;SDS011;37572;52.094;4.870;2023-02-23T04:31:34;95.03;;;30.08;;
51495;SDS011;37572;52.094;4.870;2023-02-23T04:34:00;88.10;;;28.40;;
51495;SDS011;37572;52.094;4.870;2023-02-23T04:36:25;96.93;;;29.80;;
51495;SDS011;37572;52.094;4.870;2023-02-23T04:38:50;99.13;;;31.92;;
51495;SDS011;37572;52.094;4.870;2023-02-23T04:41:16;80.67;;;28.67;;
51495;SDS011;37572;52.094;4.870;2023-02-23T04:43:41;89.70;;;28.73;;
51495;SDS011;37572;52.094;4.870;2023-02-23T04:46:06;83.47;;;25.67;;
51495;SDS011;37572;52.094;4.870;2023-02-23T04:48:31;91.27;;;29.70;;
51495;SDS011;37572;52.094;4.870;2023-02-23T04:50:56;77.57;;;26.13;;
51495;SDS011;37572;52.094;4.870;2023-02-23T04:53:21;89.93;;;30.87;;
51495;SDS011;37572;52.094;4.870;2023-02-23T04:55:47;92.07;;;28.80;;
51495;SDS011;37572;52.094;4.870;2023-02-23T04:58:12;70.43;;;23.40;;
51495;SDS011;37572;52.094;4.870;2023-02-23T05:00:37;92.03;;;29.42;;
51495;SDS011;37572;52.094;4.870;2023-02-23T05:03:03;82.75;;;26.23;;
51495;SDS011;37572;52.094;4.870;2023-02-23T05:05:28;96.97;;;28.53;;
51495;SDS011;37572;52.094;4.870;2023-02-23T05:07:53;83.03;;;29.30;;
51495;SDS011;37572;52.094;4.870;2023-02-23T05:10:18;100.27;;;30.77;;
51495;SDS011;37572;52.094;4.870;2023-02-23T05:12:44;96.63;;;30.57;;
51495;SDS011;37572;52.094;4.870;2023-02-23T05:15:10;88.35;;;31.27;;
51495;SDS011;37572;52.094;4.870;2023-02-23T05:17:36;85.13;;;28.40;;
51495;SDS011;37572;52.094;4.870;2023-02-23T05:20:02;87.25;;;28.35;;
51495;SDS011;37572;52.094;4.870;2023-02-23T05:22:27;85.70;;;27.10;;
51495;SDS011;37572;52.094;4.870;2023-02-23T05:24:52;84.47;;;28.53;;
51495;SDS011;37572;52.094;4.870;2023-02-23T05:27:17;79.73;;;26.57;;
51495;SDS011;37572;52.094;4.870;2023-02-23T05:29:43;80.10;;;29.37;;
51495;SDS011;37572;52.094;4.870;2023-02-23T05:32:08;88.28;;;27.02;;
51495;SDS011;37572;52.094;4.870;2023-02-23T05:34:33;92.13;;;30.43;;
51495;SDS011;37572;52.094;4.870;2023-02-23T05:36:59;84.57;;;28.92;;
51495;SDS011;37572;52.094;4.870;2023-02-23T05:39:24;92.77;;;27.23;;
51495;SDS011;37572;52.094;4.870;2023-02-23T05:41:49;95.20;;;29.70;;
51495;SDS011;37572;52.094;4.870;2023-02-23T05:44:14;91.70;;;27.43;;
51495;SDS011;37572;52.094;4.870;2023-02-23T05:46:39;81.63;;;27.70;;
51495;SDS011;37572;52.094;4.870;2023-02-23T05:49:05;87.93;;;29.50;;
51495;SDS011;37572;52.094;4.870;2023-02-23T05:51:31;72.33;;;21.10;;
51495;SDS011;37572;52.094;4.870;2023-02-23T05:53:56;76.25;;;22.60;;
51495;SDS011;37572;52.094;4.870;2023-02-23T05:56:22;85.73;;;25.70;;
51495;SDS011;37572;52.094;4.870;2023-02-23T05:58:47;77.03;;;25.20;;
51495;SDS011;37572;52.094;4.870;2023-02-23T06:01:13;74.00;;;24.95;;
51495;SDS011;37572;52.094;4.870;2023-02-23T06:03:38;70.90;;;23.23;;
51495;SDS011;37572;52.094;4.870;2023-02-23T06:06:03;61.87;;;22.77;;
51495;SDS011;37572;52.094;4.870;2023-02-23T06:08:28;64.97;;;25.80;;
51495;SDS011;37572;52.094;4.870;2023-02-23T06:10:53;55.07;;;20.47;;
51495;SDS011;37572;52.094;4.870;2023-02-23T06:13:19;62.87;;;24.13;;
51495;SDS011;37572;52.094;4.870;2023-02-23T06:15:45;70.88;;;23.77;;
51495;SDS011;37572;52.094;4.870;2023-02-23T06:18:10;58.95;;;22.02;;
51495;SDS011;37572;52.094;4.870;2023-02-23T06:20:35;58.27;;;23.77;;
51495;SDS011;37572;52.094;4.870;2023-02-23T06:23:01;61.53;;;22.02;;
51495;SDS011;37572;52.094;4.870;2023-02-23T06:25:26;71.70;;;24.63;;
51495;SDS011;37572;52.094;4.870;2023-02-23T06:27:51;79.03;;;26.00;;
51495;SDS011;37572;52.094;4.870;2023-02-23T06:30:16;65.07;;;23.27;;
51495;SDS011;37572;52.094;4.870;2023-02-23T06:32:42;66.90;;;22.70;;
51495;SDS011;37572;52.094;4.870;2023-02-23T06:35:07;74.37;;;23.77;;
51495;SDS011;37572;52.094;4.870;2023-02-23T06:37:33;69.07;;;25.63;;
51495;SDS011;37572;52.094;4.870;2023-02-23T06:39:58;68.75;;;23.20;;
51495;SDS011;37572;52.094;4.870;2023-02-23T06:42:24;71.13;;;24.73;;
51495;SDS011;37572;52.094;4.870;2023-02-23T06:44:49;62.73;;;20.57;;
51495;SDS011;37572;52.094;4.870;2023-02-23T06:47:14;69.67;;;23.07;;
51495;SDS011;37572;52.094;4.870;2023-02-23T06:49:39;72.90;;;23.83;;
51495;SDS011;37572;52.094;4.870;2023-02-23T06:52:05;73.15;;;24.05;;
51495;SDS011;37572;52.094;4.870;2023-02-23T06:54:31;78.35;;;26.33;;
51495;SDS011;37572;52.094;4.870;2023-02-23T06:56:58;78.63;;;27.10;;
51495;SDS011;37572;52.094;4.870;2023-02-23T06:59:23;69.40;;;21.23;;
51495;SDS011;37572;52.094;4.870;2023-02-23T07:01:48;78.87;;;24.10;;
51495;SDS011;37572;52.094;4.870;2023-02-23T07:04:13;68.10;;;19.63;;
51495;SDS011;37572;52.094;4.870;2023-02-23T07:06:38;79.47;;;25.03;;
51495;SDS011;37572;52.094;4.870;2023-02-23T07:09:04;82.83;;;24.77;;
51495;SDS011;37572;52.094;4.870;2023-02-23T07:11:29;79.43;;;25.63;;
51495;SDS011;37572;52.094;4.870;2023-02-23T07:13:58;70.67;;;21.93;;
51495;SDS011;37572;52.094;4.870;2023-02-23T07:16:23;77.72;;;24.15;;
51495;SDS011;37572;52.094;4.870;2023-02-23T07:18:51;82.25;;;25.08;;
51495;SDS011;37572;52.094;4.870;2023-02-23T07:21:16;82.53;;;25.13;;
51495;SDS011;37572;52.094;4.870;2023-02-23T07:23:42;80.37;;;26.80;;
51495;SDS011;37572;52.094;4.870;2023-02-23T07:26:07;78.90;;;24.77;;
51495;SDS011;37572;52.094;4.870;2023-02-23T07:28:33;84.60;;;25.63;;
51495;SDS011;37572;52.094;4.870;2023-02-23T07:30:58;86.73;;;26.27;;
51495;SDS011;37572;52.094;4.870;2023-02-23T07:33:24;83.93;;;26.63;;
51495;SDS011;37572;52.094;4.870;2023-02-23T07:35:49;83.97;;;25.67;;
51495;SDS011;37572;52.094;4.870;2023-02-23T07:38:15;75.28;;;23.52;;
51495;SDS011;37572;52.094;4.870;2023-02-23T07:40:40;81.90;;;24.17;;
51495;SDS011;37572;52.094;4.870;2023-02-23T07:43:06;70.37;;;21.40;;
51495;SDS011;37572;52.094;4.870;2023-02-23T07:45:31;79.30;;;23.17;;
51495;SDS011;37572;52.094;4.870;2023-02-23T07:47:57;76.88;;;24.50;;
51495;SDS011;37572;52.094;4.870;2023-02-23T07:50:23;78.72;;;23.63;;
51495;SDS011;37572;52.094;4.870;2023-02-23T07:52:49;78.10;;;24.87;;
51495;SDS011;37572;52.094;4.870;2023-02-23T07:55:14;76.53;;;21.48;;
51495;SDS011;37572;52.094;4.870;2023-02-23T07:57:40;68.40;;;20.10;;
51495;SDS011;37572;52.094;4.870;2023-02-23T08:00:05;61.43;;;19.57;;
51495;SDS011;37572;52.094;4.870;2023-02-23T08:02:30;68.07;;;19.58;;
51495;SDS011;37572;52.094;4.870;2023-02-23T08:04:56;53.03;;;15.73;;
51495;SDS011;37572;52.094;4.870;2023-02-23T08:07:22;50.23;;;16.00;;
51495;SDS011;37572;52.094;4.870;2023-02-23T08:09:48;65.80;;;19.48;;
51495;SDS011;37572;52.094;4.870;2023-02-23T08:12:13;68.43;;;20.00;;
51495;SDS011;37572;52.094;4.870;2023-02-23T08:14:39;65.72;;;17.60;;
51495;SDS011;37572;52.094;4.870;2023-02-23T08:17:04;80.40;;;21.37;;
51495;SDS011;37572;52.094;4.870;2023-02-23T08:19:30;78.73;;;21.40;;
51495;SDS011;37572;52.094;4.870;2023-02-23T08:21:55;63.10;;;18.00;;
51495;SDS011;37572;52.094;4.870;2023-02-23T08:24:21;77.90;;;24.98;;
51495;SDS011;37572;52.094;4.870;2023-02-23T08:26:46;65.70;;;19.83;;
51495;SDS011;37572;52.094;4.870;2023-02-23T08:29:11;78.87;;;21.43;;
51495;SDS011;37572;52.094;4.870;2023-02-23T08:31:36;84.47;;;21.00;;
51495;SDS011;37572;52.094;4.870;2023-02-23T08:34:01;66.07;;;19.70;;
51495;SDS011;37572;52.094;4.870;2023-02-23T08:36:27;84.13;;;22.47;;
51495;SDS011;37572;52.094;4.870;2023-02-23T08:38:52;71.85;;;21.60;;
51495;SDS011;37572;52.094;4.870;2023-02-23T08:41:21;73.22;;;20.65;;
51495;SDS011;37572;52.094;4.870;2023-02-23T08:43:46;65.93;;;21.40;;
51495;SDS011;37572;52.094;4.870;2023-02-23T08:46:12;66.20;;;18.95;;
51495;SDS011;37572;52.094;4.870;2023-02-23T08:48:37;59.67;;;18.13;;
51495;SDS011;37572;52.094;4.870;2023-02-23T08:51:04;49.35;;;15.85;;
51495;SDS011;37572;52.094;4.870;2023-02-23T08:53:29;46.42;;;15.95;;
51495;SDS011;37572;52.094;4.870;2023-02-23T08:55:58;37.10;;;12.07;;
51495;SDS011;37572;52.094;4.870;2023-02-23T08:58:24;33.10;;;12.13;;
51495;SDS011;37572;52.094;4.870;2023-02-23T09:00:50;36.53;;;12.40;;
51495;SDS011;37572;52.094;4.870;2023-02-23T09:03:15;39.93;;;12.37;;
51495;SDS011;37572;52.094;4.870;2023-02-23T09:05:40;37.43;;;11.90;;
51495;SDS011;37572;52.094;4.870;2023-02-23T09:08:08;37.88;;;14.32;;
51495;SDS011;37572;52.094;4.870;2023-02-23T09:10:33;34.58;;;12.82;;
51495;SDS011;37572;52.094;4.870;2023-02-23T09:12:58;35.17;;;13.40;;
51495;SDS011;37572;52.094;4.870;2023-02-23T09:15:23;31.57;;;12.40;;
51495;SDS011;37572;52.094;4.870;2023-02-23T09:17:49;31.67;;;10.90;;
51495;SDS011;37572;52.094;4.870;2023-02-23T09:20:14;33.60;;;11.77;;
51495;SDS011;37572;52.094;4.870;2023-02-23T09:22:40;33.47;;;12.40;;
51495;SDS011;37572;52.094;4.870;2023-02-23T09:25:09;33.33;;;12.55;;
51495;SDS011;37572;52.094;4.870;2023-02-23T09:27:34;28.70;;;10.73;;
51495;SDS011;37572;52.094;4.870;2023-02-23T09:29:59;31.40;;;12.73;;
51495;SDS011;37572;52.094;4.870;2023-02-23T09:32:24;28.77;;;11.50;;
51495;SDS011;37572;52.094;4.870;2023-02-23T09:34:50;30.00;;;10.87;;
51495;SDS011;37572;52.094;4.870;2023-02-23T09:37:16;31.75;;;12.50;;
51495;SDS011;37572;52.094;4.870;2023-02-23T09:39:41;27.63;;;11.13;;
51495;SDS011;37572;52.094;4.870;2023-02-23T09:47:24;33.50;;;17.10;;
51495;SDS011;37572;52.094;4.870;2023-02-23T09:49:50;34.60;;;13.10;;
51495;SDS011;37572;52.094;4.870;2023-02-23T09:52:18;32.08;;;13.05;;
51495;SDS011;37572;52.094;4.870;2023-02-23T09:54:44;33.20;;;12.18;;
51495;SDS011;37572;52.094;4.870;2023-02-23T09:57:11;32.60;;;12.48;;
51495;SDS011;37572;52.094;4.870;2023-02-23T09:59:38;29.90;;;11.75;;
51495;SDS011;37572;52.094;4.870;2023-02-23T10:04:57;31.33;;;12.65;;
51495;SDS011;37572;52.094;4.870;2023-02-23T10:07:41;21.38;;;9.00;;
51495;SDS011;37572;52.094;4.870;2023-02-23T10:10:14;26.55;;;10.23;;
51495;SDS011;37572;52.094;4.870;2023-02-23T10:15:32;23.52;;;9.32;;
51495;SDS011;37572;52.094;4.870;2023-02-23T10:18:02;25.27;;;9.48;;
51495;SDS011;37572;52.094;4.870;2023-02-23T10:20:34;21.90;;;9.38;;
51495;SDS011;37572;52.094;4.870;2023-02-23T10:23:03;29.90;;;11.82;;
51495;SDS011;37572;52.094;4.870;2023-02-23T10:25:29;28.13;;;11.50;;
51495;SDS011;37572;52.094;4.870;2023-02-23T10:27:55;25.05;;;10.82;;
51495;SDS011;37572;52.094;4.870;2023-02-23T10:30:23;27.67;;;10.63;;
51495;SDS011;37572;52.094;4.870;2023-02-23T10:32:55;25.27;;;9.95;;
51495;SDS011;37572;52.094;4.870;2023-02-23T10:35:23;23.08;;;9.75;;
51495;SDS011;37572;52.094;4.870;2023-02-23T10:37:50;20.33;;;8.00;;
51495;SDS011;37572;52.094;4.870;2023-02-23T10:40:21;23.52;;;10.38;;
51495;SDS011;37572;52.094;4.870;2023-02-23T10:42:47;23.00;;;8.63;;
51495;SDS011;37572;52.094;4.870;2023-02-23T10:45:13;20.58;;;9.82;;
51495;SDS011;37572;52.094;4.870;2023-02-23T10:47:56;20.15;;;8.50;;
51495;SDS011;37572;52.094;4.870;2023-02-23T10:50:22;19.83;;;9.05;;
51495;SDS011;37572;52.094;4.870;2023-02-23T10:52:51;20.15;;;8.40;;
51495;SDS011;37572;52.094;4.870;2023-02-23T10:55:20;19.80;;;8.40;;
51495;SDS011;37572;52.094;4.870;2023-02-23T10:57:50;23.92;;;10.98;;
51495;SDS011;37572;52.094;4.870;2023-02-23T11:00:25;18.42;;;7.22;;
51495;SDS011;37572;52.094;4.870;2023-02-23T11:02:54;19.85;;;8.35;;
51495;SDS011;37572;52.094;4.870;2023-02-23T11:10:33;20.80;;;9.15;;
51495;SDS011;37572;52.094;4.870;2023-02-23T11:12:58;21.20;;;8.30;;
51495;SDS011;37572;52.094;4.870;2023-02-23T11:17:59;21.50;;;8.43;;
51495;SDS011;37572;52.094;4.870;2023-02-23T11:20:34;19.85;;;8.27;;
51495;SDS011;37572;52.094;4.870;2023-02-23T11:25:44;18.42;;;8.27;;
51495;SDS011;37572;52.094;4.870;2023-02-23T11:28:21;18.77;;;7.70;;
51495;SDS011;37572;52.094;4.870;2023-02-23T11:33:16;22.88;;;9.82;;
51495;SDS011;37572;52.094;4.870;2023-02-23T11:35:42;18.05;;;7.82;;
51495;SDS011;37572;52.094;4.870;2023-02-23T11:38:15;22.47;;;9.50;;
51495;SDS011;37572;52.094;4.870;2023-02-23T11:40:40;22.17;;;9.10;;
51495;SDS011;37572;52.094;4.870;2023-02-23T11:43:13;25.13;;;10.60;;
51495;SDS011;37572;52.094;4.870;2023-02-23T11:48:14;29.05;;;11.45;;
51495;SDS011;37572;52.094;4.870;2023-02-23T11:50:44;23.98;;;9.45;;
51495;SDS011;37572;52.094;4.870;2023-02-23T11:53:12;27.20;;;10.57;;
51495;SDS011;37572;52.094;4.870;2023-02-23T11:55:39;26.42;;;10.73;;
51495;SDS011;37572;52.094;4.870;2023-02-23T11:58:19;26.17;;;10.52;;
51495;SDS011;37572;52.094;4.870;2023-02-23T12:00:53;23.10;;;9.70;;
51495;SDS011;37572;52.094;4.870;2023-02-23T12:03:20;24.80;;;12.43;;
51495;SDS011;37572;52.094;4.870;2023-02-23T12:05:48;24.98;;;10.77;;
51495;SDS011;37572;52.094;4.870;2023-02-23T12:08:15;25.27;;;10.18;;
51495;SDS011;37572;52.094;4.870;2023-02-23T12:10:46;31.65;;;11.73;;
51495;SDS011;37572;52.094;4.870;2023-02-23T12:20:57;32.25;;;12.55;;
51495;SDS011;37572;52.094;4.870;2023-02-23T12:23:25;31.45;;;12.00;;
51495;SDS011;37572;52.094;4.870;2023-02-23T12:25:58;28.92;;;11.90;;
51495;SDS011;37572;52.094;4.870;2023-02-23T12:31:01;31.38;;;10.95;;
51495;SDS011;37572;52.094;4.870;2023-02-23T12:36:01;31.38;;;13.27;;
51495;SDS011;37572;52.094;4.870;2023-02-23T12:38:45;33.75;;;13.07;;
51495;SDS011;37572;52.094;4.870;2023-02-23T12:42:00;32.22;;;14.02;;
51495;SDS011;37572;52.094;4.870;2023-02-23T12:43:59;36.15;;;14.82;;
51495;SDS011;37572;52.094;4.870;2023-02-23T12:46:30;30.75;;;11.40;;
51495;SDS011;37572;52.094;4.870;2023-02-23T12:51:33;28.27;;;11.52;;
51495;SDS011;37572;52.094;4.870;2023-02-23T12:54:00;27.55;;;11.75;;
51495;SDS011;37572;52.094;4.870;2023-02-23T12:58:58;25.27;;;10.30;;
51495;SDS011;37572;52.094;4.870;2023-02-23T13:01:31;25.25;;;10.73;;
51495;SDS011;37572;52.094;4.870;2023-02-23T13:06:35;24.90;;;11.32;;
51495;SDS011;37572;52.094;4.870;2023-02-23T13:12:05;24.88;;;9.98;;
51495;SDS011;37572;52.094;4.870;2023-02-23T13:14:37;23.35;;;11.10;;
51495;SDS011;37572;52.094;4.870;2023-02-23T13:19:40;23.52;;;9.05;;
51495;SDS011;37572;52.094;4.870;2023-02-23T13:24:57;23.13;;;10.13;;
51495;SDS011;37572;52.094;4.870;2023-02-23T13:27:27;28.00;;;10.65;;
51495;SDS011;37572;52.094;4.870;2023-02-23T13:29:54;28.42;;;11.85;;
51495;SDS011;37572;52.094;4.870;2023-02-23T13:32:21;28.13;;;12.25;;
51495;SDS011;37572;52.094;4.870;2023-02-23T13:34:49;31.65;;;12.32;;
51495;SDS011;37572;52.094;4.870;2023-02-23T13:37:17;29.25;;;11.02;;
51495;SDS011;37572;52.094;4.870;2023-02-23T13:44:58;29.92;;;13.43;;
51495;SDS011;37572;52.094;4.870;2023-02-23T13:47:38;33.42;;;13.15;;
51495;SDS011;37572;52.094;4.870;2023-02-23T13:52:40;26.92;;;13.25;;
51495;SDS011;37572;52.094;4.870;2023-02-23T13:57:49;26.50;;;12.05;;
51495;SDS011;37572;52.094;4.870;2023-02-23T14:00:18;31.80;;;14.70;;
51495;SDS011;37572;52.094;4.870;2023-02-23T14:02:44;31.48;;;13.57;;
51495;SDS011;37572;52.094;4.870;2023-02-23T14:05:17;30.52;;;13.23;;
51495;SDS011;37572;52.094;4.870;2023-02-23T14:07:43;25.40;;;10.25;;
51495;SDS011;37572;52.094;4.870;2023-02-23T14:10:22;34.47;;;14.55;;
51495;SDS011;37572;52.094;4.870;2023-02-23T14:18:02;25.30;;;10.68;;
51495;SDS011;37572;52.094;4.870;2023-02-23T14:25:44;24.27;;;9.75;;
51495;SDS011;37572;52.094;4.870;2023-02-23T14:28:32;24.65;;;10.70;;
51495;SDS011;37572;52.094;4.870;2023-02-23T14:31:00;24.10;;;10.80;;
51495;SDS011;37572;52.094;4.870;2023-02-23T14:39:28;23.58;;;10.23;;
51495;SDS011;37572;52.094;4.870;2023-02-23T14:41:52;24.17;;;10.35;;
51495;SDS011;37572;52.094;4.870;2023-02-23T14:46:49;22.70;;;11.23;;
51495;SDS011;37572;52.094;4.870;2023-02-23T14:49:19;27.38;;;11.07;;
51495;SDS011;37572;52.094;4.870;2023-02-23T14:51:50;25.58;;;11.23;;
51495;SDS011;37572;52.094;4.870;2023-02-23T14:56:51;21.17;;;9.65;;
51495;SDS011;37572;52.094;4.870;2023-02-23T14:59:18;23.20;;;10.52;;
51495;SDS011;37572;52.094;4.870;2023-02-23T15:01:45;26.77;;;9.98;;
51495;SDS011;37572;52.094;4.870;2023-02-23T15:04:12;24.38;;;10.30;;
51495;SDS011;37572;52.094;4.870;2023-02-23T15:06:38;26.95;;;10.00;;
51495;SDS011;37572;52.094;4.870;2023-02-23T15:09:05;21.77;;;10.52;;
51495;SDS011;37572;52.094;4.870;2023-02-23T15:11:30;22.02;;;9.07;;
51495;SDS011;37572;52.094;4.870;2023-02-23T15:13:56;13.18;;;3.15;;
51495;SDS011;37572;52.094;4.870;2023-02-23T15:16:26;7.78;;;2.55;;
51495;SDS011;37572;52.094;4.870;2023-02-23T15:18:51;7.20;;;2.40;;
51495;SDS011;37572;52.094;4.870;2023-02-23T15:21:19;9.23;;;2.60;;
51495;SDS011;37572;52.094;4.870;2023-02-23T15:23:45;6.78;;;2.42;;
51495;SDS011;37572;52.094;4.870;2023-02-23T15:26:17;8.20;;;2.58;;
51495;SDS011;37572;52.094;4.870;2023-02-23T15:28:44;10.60;;;2.25;;
51495;SDS011;37572;52.094;4.870;2023-02-23T15:31:10;7.13;;;1.80;;
51495;SDS011;37572;52.094;4.870;2023-02-23T15:33:36;10.35;;;2.15;;
51495;SDS011;37572;52.094;4.870;2023-02-23T15:38:41;12.65;;;2.65;;
51495;SDS011;37572;52.094;4.870;2023-02-23T15:41:08;14.45;;;2.92;;
51495;SDS011;37572;52.094;4.870;2023-02-23T15:46:04;14.88;;;3.10;;
51495;SDS011;37572;52.094;4.870;2023-02-23T15:48:40;12.23;;;2.85;;
51495;SDS011;37572;52.094;4.870;2023-02-23T15:51:13;12.85;;;4.22;;
51495;SDS011;37572;52.094;4.870;2023-02-23T15:53:44;14.27;;;3.25;;
51495;SDS011;37572;52.094;4.870;2023-02-23T15:56:10;13.57;;;2.67;;
51495;SDS011;37572;52.094;4.870;2023-02-23T15:58:39;14.00;;;4.55;;
51495;SDS011;37572;52.094;4.870;2023-02-23T16:01:09;12.55;;;2.53;;
51495;SDS011;37572;52.094;4.870;2023-02-23T16:03:36;15.20;;;3.15;;
51495;SDS011;37572;52.094;4.870;2023-02-23T16:08:27;14.47;;;3.80;;
51495;SDS011;37572;52.094;4.870;2023-02-23T16:11:29;14.70;;;3.00;;
51495;SDS011;37572;52.094;4.870;2023-02-23T16:13:45;18.13;;;3.58;;
51495;SDS011;37572;52.094;4.870;2023-02-23T16:16:13;12.77;;;2.40;;
51495;SDS011;37572;52.094;4.870;2023-02-23T16:18:43;17.48;;;4.88;;
51495;SDS011;37572;52.094;4.870;2023-02-23T16:21:12;17.83;;;3.65;;
51495;SDS011;37572;52.094;4.870;2023-02-23T16:23:41;17.15;;;2.75;;
51495;SDS011;37572;52.094;4.870;2023-02-23T16:26:09;14.68;;;2.97;;
51495;SDS011;37572;52.094;4.870;2023-02-23T16:28:36;15.20;;;3.10;;
51495;SDS011;37572;52.094;4.870;2023-02-23T16:31:05;13.63;;;3.28;;
51495;SDS011;37572;52.094;4.870;2023-02-23T16:38:33;18.30;;;3.92;;
51495;SDS011;37572;52.094;4.870;2023-02-23T16:40:59;20.33;;;4.15;;
51495;SDS011;37572;52.094;4.870;2023-02-23T16:43:26;18.80;;;4.07;;
51495;SDS011;37572;52.094;4.870;2023-02-23T16:45:52;17.50;;;3.15;;
51495;SDS011;37572;52.094;4.870;2023-02-23T16:48:17;16.73;;;3.07;;
51495;SDS011;37572;52.094;4.870;2023-02-23T16:50:43;18.33;;;2.67;;